createdAt,value
2023-04-04T00:01:55.552Z,8.26
2023-04-04T00:04:25.190Z,8.25
2023-04-04T00:06:55.301Z,8.24
2023-04-04T00:09:24.501Z,8.21
2023-04-04T00:11:53.950Z,8.16
2023-04-04T00:14:23.204Z,8.17
2023-04-04T00:16:52.305Z,8.19
2023-04-04T00:19:21.344Z,8.25
2023-04-04T00:21:50.724Z,8.26
2023-04-04T00:24:19.683Z,8.26
2023-04-04T00:26:48.854Z,8.22
2023-04-04T00:29:17.911Z,8.20
2023-04-04T00:31:47.030Z,8.18
2023-04-04T00:34:15.852Z,8.15
2023-04-04T00:36:45.034Z,8.11
2023-04-04T00:39:14.035Z,8.09
2023-04-04T00:41:42.943Z,8.06
2023-04-04T00:44:12.378Z,8.09
2023-04-04T00:46:41.727Z,8.04
2023-04-04T00:49:10.685Z,8.08
2023-04-04T00:51:39.955Z,8.09
2023-04-04T00:54:09.768Z,8.08
2023-04-04T00:56:40.985Z,8.11
2023-04-04T00:59:10.367Z,8.14
2023-04-04T01:01:39.742Z,8.10
2023-04-04T01:04:09.454Z,8.00
2023-04-04T01:06:38.751Z,7.99
2023-04-04T01:09:07.599Z,7.99
2023-04-04T01:11:36.953Z,7.94
2023-04-04T01:14:06.074Z,7.86
2023-04-04T01:16:36.730Z,7.87
2023-04-04T01:19:10.576Z,7.86
2023-04-04T01:21:41.373Z,7.82
2023-04-04T01:24:13.142Z,7.79
2023-04-04T01:26:42.396Z,7.74
2023-04-04T01:29:11.895Z,7.73
2023-04-04T01:31:52.202Z,7.71
2023-04-04T01:34:39.757Z,7.65
2023-04-04T01:37:21.686Z,7.53
2023-04-04T01:39:56.802Z,7.46
2023-04-04T01:42:27.266Z,7.41
2023-04-04T01:44:57.503Z,7.37
2023-04-04T01:47:26.580Z,7.32
2023-04-04T01:49:56.098Z,7.38
2023-04-04T01:52:25.215Z,7.39
2023-04-04T01:54:54.171Z,7.41
2023-04-04T01:57:23.364Z,7.36
2023-04-04T01:59:52.316Z,7.31
2023-04-04T02:02:21.470Z,7.29
2023-04-04T02:04:50.412Z,7.26
2023-04-04T02:07:19.798Z,7.21
2023-04-04T02:09:48.763Z,7.19
2023-04-04T02:12:17.672Z,7.21
2023-04-04T02:14:46.768Z,7.19
2023-04-04T02:17:16.775Z,7.15
2023-04-04T02:19:46.475Z,7.11
2023-04-04T02:22:15.292Z,7.12
2023-04-04T02:24:44.222Z,7.10
2023-04-04T02:27:13.259Z,7.04
2023-04-04T02:29:42.622Z,7.00
2023-04-04T02:32:12.094Z,6.94
2023-04-04T02:34:41.098Z,6.94
2023-04-04T02:37:09.999Z,6.98
2023-04-04T02:39:39.834Z,6.98
2023-04-04T02:42:08.939Z,6.93
2023-04-04T02:44:37.785Z,6.90
2023-04-04T02:47:07.812Z,6.83
2023-04-04T02:49:36.879Z,6.81
2023-04-04T02:52:05.857Z,6.76
2023-04-04T02:54:34.687Z,6.81
2023-04-04T02:57:05.062Z,6.80
2023-04-04T02:59:34.163Z,6.78
2023-04-04T03:02:03.338Z,6.73
2023-04-04T03:04:33.325Z,6.73
2023-04-04T03:07:03.749Z,6.69
2023-04-04T03:09:32.935Z,6.69
2023-04-04T03:12:02.130Z,6.67
2023-04-04T03:14:30.874Z,6.66
2023-04-04T03:16:59.874Z,6.57
2023-04-04T03:19:29.214Z,6.52
2023-04-04T03:21:58.146Z,6.42
2023-04-04T03:24:28.960Z,6.28
2023-04-04T03:26:57.987Z,6.26
2023-04-04T03:29:27.514Z,6.16
2023-04-04T03:31:56.951Z,6.07
2023-04-04T03:34:27.749Z,6.06
2023-04-04T03:36:57.854Z,5.99
2023-04-04T03:39:32.822Z,5.95
2023-04-04T03:42:02.072Z,5.88
2023-04-04T03:44:31.462Z,5.85
2023-04-04T03:47:00.412Z,5.87
2023-04-04T03:49:30.493Z,5.87
2023-04-04T03:52:00.206Z,5.81
2023-04-04T03:54:29.944Z,5.78
2023-04-04T03:56:59.844Z,5.73
2023-04-04T03:59:30.302Z,5.74
2023-04-04T04:01:59.585Z,5.73
2023-04-04T04:04:28.749Z,5.73
2023-04-04T04:06:58.117Z,5.74
2023-04-04T04:09:27.778Z,5.74
2023-04-04T04:11:57.125Z,5.75
2023-04-04T04:14:26.133Z,5.85
2023-04-04T04:16:55.506Z,5.92
2023-04-04T04:19:24.420Z,5.92
2023-04-04T04:21:53.107Z,5.99
2023-04-04T04:24:22.923Z,6.05
2023-04-04T04:26:51.825Z,6.13
2023-04-04T04:29:21.267Z,6.23
2023-04-04T04:31:50.304Z,6.30
2023-04-04T04:34:19.033Z,6.40
2023-04-04T04:36:48.674Z,6.43
2023-04-04T04:39:17.585Z,6.52
2023-04-04T04:41:46.496Z,6.59
2023-04-04T04:44:15.304Z,6.58
2023-04-04T04:46:44.380Z,6.56
2023-04-04T04:49:13.461Z,6.63
2023-04-04T04:51:43.442Z,6.62
2023-04-04T04:54:12.621Z,6.65
2023-04-04T04:56:41.941Z,6.61
2023-04-04T04:59:11.790Z,6.62
2023-04-04T05:01:40.866Z,6.60
2023-04-04T05:04:09.839Z,6.56
2023-04-04T05:06:39.000Z,6.62
2023-04-04T05:09:07.838Z,6.61
2023-04-04T05:11:37.096Z,6.61
2023-04-04T05:14:07.307Z,6.66
2023-04-04T05:16:36.295Z,6.74
2023-04-04T05:19:05.638Z,6.76
2023-04-04T05:21:34.976Z,6.85
2023-04-04T05:24:04.190Z,6.91
2023-04-04T05:26:33.452Z,6.97
2023-04-04T05:29:02.719Z,7.04
2023-04-04T05:31:31.897Z,7.14
2023-04-04T05:34:08.390Z,7.28
2023-04-04T05:36:38.398Z,7.35
2023-04-04T05:39:08.114Z,7.37
2023-04-04T05:41:37.304Z,7.43
2023-04-04T05:44:06.827Z,7.48
2023-04-04T05:46:36.654Z,7.52
2023-04-04T05:49:06.639Z,7.59
2023-04-04T05:51:36.012Z,7.71
2023-04-04T05:54:08.165Z,7.86
2023-04-04T05:56:37.962Z,8.00
2023-04-04T05:59:07.358Z,8.21
2023-04-04T06:01:36.571Z,8.39
2023-04-04T06:04:05.858Z,8.51
2023-04-04T06:06:36.307Z,8.46
2023-04-04T06:09:08.253Z,8.60
2023-04-04T06:11:38.658Z,8.99
2023-04-04T06:14:09.282Z,9.68
2023-04-04T06:16:39.284Z,10.21
2023-04-04T06:19:08.268Z,10.60
2023-04-04T06:21:37.578Z,10.54
2023-04-04T06:24:06.787Z,10.41
2023-04-04T06:26:36.863Z,11.09
2023-04-04T06:29:06.624Z,11.48
2023-04-04T06:31:36.147Z,11.88
2023-04-04T06:34:05.407Z,12.10
2023-04-04T06:36:36.185Z,11.88
2023-04-04T06:39:05.360Z,11.46
2023-04-04T06:41:35.195Z,11.20
2023-04-04T06:44:04.719Z,11.17
2023-04-04T06:46:34.762Z,11.11
2023-04-04T06:49:04.656Z,11.61
2023-04-04T06:51:35.265Z,11.94
2023-04-04T06:54:04.875Z,12.01
2023-04-04T06:56:34.382Z,12.38
2023-04-04T06:59:04.196Z,12.06
2023-04-04T07:01:36.912Z,12.01
2023-04-04T07:04:06.819Z,11.70
2023-04-04T07:06:35.804Z,11.57
2023-04-04T07:09:05.920Z,11.73
2023-04-04T07:11:36.608Z,11.65
2023-04-04T07:14:07.049Z,12.16
2023-04-04T07:16:37.148Z,12.06
2023-04-04T07:19:08.960Z,12.09
2023-04-04T07:21:37.866Z,12.52
2023-04-04T07:24:07.303Z,12.84
2023-04-04T07:26:37.742Z,13.00
2023-04-04T07:29:07.300Z,12.64
2023-04-04T07:31:36.827Z,13.11
2023-04-04T07:34:06.772Z,14.42
2023-04-04T07:36:35.607Z,15.12
2023-04-04T07:39:05.557Z,15.81
2023-04-04T07:41:35.014Z,16.22
2023-04-04T07:44:04.397Z,16.79
2023-04-04T07:46:33.839Z,17.28
2023-04-04T07:49:03.683Z,17.57
2023-04-04T07:51:33.534Z,17.57
2023-04-04T07:54:03.180Z,18.26
2023-04-04T07:56:32.111Z,19.04
2023-04-04T07:59:01.451Z,18.76
2023-04-04T08:01:31.316Z,17.81
2023-04-04T08:04:00.988Z,18.04
2023-04-04T08:06:30.367Z,17.21
2023-04-04T08:09:01.465Z,16.72
2023-04-04T08:11:30.557Z,16.51
2023-04-04T08:14:01.694Z,16.26
2023-04-04T08:16:30.600Z,16.05
2023-04-04T08:19:01.327Z,15.45
2023-04-04T08:21:30.713Z,15.44
2023-04-04T08:24:00.039Z,15.28
2023-04-04T08:26:30.255Z,15.43
2023-04-04T08:29:00.355Z,15.78
2023-04-04T08:31:30.306Z,16.30
2023-04-04T08:33:59.456Z,16.20
2023-04-04T08:36:29.163Z,16.42
2023-04-04T08:38:58.695Z,16.41
2023-04-04T08:41:28.645Z,15.99
2023-04-04T08:44:02.653Z,15.76
2023-04-04T08:46:32.682Z,15.78
2023-04-04T08:49:05.050Z,15.67
2023-04-04T08:51:36.372Z,15.62
2023-04-04T08:54:07.387Z,17.25
2023-04-04T08:56:37.116Z,18.72
2023-04-04T08:59:06.706Z,18.83
2023-04-04T09:01:36.952Z,19.88
2023-04-04T09:04:08.566Z,18.43
2023-04-04T09:06:41.085Z,18.07
2023-04-04T09:09:12.156Z,18.10
2023-04-04T09:11:41.881Z,19.55
2023-04-04T09:14:11.721Z,19.93
2023-04-04T09:16:41.274Z,19.62
2023-04-04T09:19:13.398Z,20.09
2023-04-04T09:21:47.585Z,20.28
2023-04-04T09:24:18.094Z,20.56
2023-04-04T09:26:54.906Z,19.95
2023-04-04T09:29:24.141Z,20.28
2023-04-04T09:31:54.537Z,21.36
2023-04-04T09:34:23.649Z,22.28
2023-04-04T09:36:54.523Z,22.80
2023-04-04T09:39:24.306Z,22.50
2023-04-04T09:41:55.085Z,23.21
2023-04-04T09:44:26.322Z,23.24
2023-04-04T09:47:30.993Z,24.71
2023-04-04T09:50:01.918Z,25.03
2023-04-04T09:52:36.462Z,25.28
2023-04-04T09:55:07.486Z,23.61
2023-04-04T09:57:38.576Z,23.82
2023-04-04T10:00:12.805Z,24.27
2023-04-04T10:02:49.133Z,24.25
2023-04-04T10:05:20.826Z,24.52
2023-04-04T10:07:50.196Z,24.43
2023-04-04T10:10:20.674Z,24.92
2023-04-04T10:12:53.386Z,25.18
2023-04-04T10:15:23.269Z,25.89
2023-04-04T10:17:55.948Z,26.32
2023-04-04T10:20:26.758Z,26.19
2023-04-04T10:22:56.966Z,26.70
2023-04-04T10:25:27.641Z,25.71
2023-04-04T10:27:58.037Z,26.27
2023-04-04T10:30:28.130Z,26.80
2023-04-04T10:33:02.996Z,27.40
2023-04-04T10:35:34.544Z,27.51
2023-04-04T10:38:07.226Z,27.53
2023-04-04T10:40:41.745Z,27.92
2023-04-04T10:43:12.796Z,28.61
2023-04-04T10:45:43.157Z,29.06
2023-04-04T10:48:13.005Z,29.62
2023-04-04T10:50:43.144Z,29.90
2023-04-04T10:53:12.459Z,29.62
2023-04-04T10:55:43.014Z,29.24
2023-04-04T10:58:13.450Z,29.67
2023-04-04T11:00:56.005Z,30.05
2023-04-04T11:03:26.206Z,28.79
2023-04-04T11:06:02.081Z,28.45
2023-04-04T11:08:37.969Z,28.15
2023-04-04T11:11:21.768Z,25.41
2023-04-04T11:14:04.685Z,24.31
2023-04-04T11:16:47.949Z,26.08
2023-04-04T11:19:18.405Z,26.52
2023-04-04T11:21:51.170Z,26.61
2023-04-04T11:24:20.749Z,27.05
2023-04-04T11:26:49.845Z,27.69
2023-04-04T11:29:43.073Z,28.83
2023-04-04T11:32:34.369Z,28.69
2023-04-04T11:35:06.824Z,28.48
2023-04-04T11:37:45.672Z,27.00
2023-04-04T11:40:16.675Z,25.94
2023-04-04T11:42:53.108Z,25.17
2023-04-04T11:45:26.052Z,23.72
2023-04-04T11:47:56.404Z,22.08
2023-04-04T11:50:25.896Z,22.60
2023-04-04T11:52:55.782Z,23.03
2023-04-04T11:55:26.966Z,23.08
2023-04-04T11:57:58.609Z,22.61
2023-04-04T12:00:40.169Z,22.75
2023-04-04T12:03:13.178Z,24.66
2023-04-04T12:05:45.391Z,25.47
2023-04-04T12:08:18.606Z,26.37
2023-04-04T12:10:48.366Z,24.81
2023-04-04T12:13:17.985Z,23.26
2023-04-04T12:15:49.346Z,22.85
2023-04-04T12:18:24.046Z,22.75
2023-04-04T12:20:54.873Z,22.91
2023-04-04T12:23:25.985Z,24.03
2023-04-04T12:26:03.382Z,24.72
2023-04-04T12:28:35.520Z,24.11
2023-04-04T12:31:07.255Z,24.64
2023-04-04T12:36:27.625Z,23.29
2023-04-04T12:39:09.547Z,24.14
2023-04-04T12:42:09.034Z,23.65
2023-04-04T12:44:41.012Z,22.30
2023-04-04T12:47:12.118Z,21.53
2023-04-04T12:49:43.730Z,21.03
2023-04-04T12:52:21.173Z,20.40
2023-04-04T12:57:28.656Z,20.26
2023-04-04T13:00:02.858Z,20.47
2023-04-04T13:02:32.832Z,19.89
2023-04-04T13:05:02.347Z,19.12
2023-04-04T13:07:35.400Z,18.41
2023-04-04T13:10:05.988Z,18.43
2023-04-04T13:13:01.026Z,19.23
2023-04-04T13:16:08.147Z,19.05
2023-04-04T13:18:42.889Z,18.22
2023-04-04T13:21:13.641Z,18.65
2023-04-04T13:23:43.726Z,18.28
2023-04-04T13:26:13.373Z,17.61
2023-04-04T13:28:42.809Z,17.66
2023-04-04T13:31:12.428Z,17.62
2023-04-04T13:33:42.809Z,17.64
2023-04-04T13:36:14.591Z,17.60
2023-04-04T13:38:43.968Z,17.16
2023-04-04T13:41:12.976Z,16.93
2023-04-04T13:43:42.612Z,17.22
2023-04-04T13:46:11.737Z,16.62
2023-04-04T13:48:43.751Z,16.62
2023-04-04T13:51:13.077Z,16.62
2023-04-04T13:53:42.091Z,16.73
2023-04-04T13:56:17.569Z,17.26
2023-04-04T13:58:47.720Z,18.51
2023-04-04T14:01:17.325Z,19.15
2023-04-04T14:03:48.123Z,19.22
2023-04-04T14:06:17.755Z,18.83
2023-04-04T14:08:47.796Z,18.69
2023-04-04T14:11:17.300Z,18.80
2023-04-04T14:13:46.878Z,19.10
2023-04-04T14:16:16.779Z,19.64
2023-04-04T14:18:45.726Z,19.53
2023-04-04T14:21:15.320Z,19.90
2023-04-04T14:23:44.779Z,19.97
2023-04-04T14:26:14.648Z,20.39
2023-04-04T14:28:44.194Z,20.44
2023-04-04T14:31:13.997Z,20.92
2023-04-04T14:33:43.203Z,20.98
2023-04-04T14:36:12.359Z,21.22
2023-04-04T14:38:41.489Z,21.01
2023-04-04T14:41:11.034Z,21.29
2023-04-04T14:43:40.785Z,21.59
2023-04-04T14:46:10.399Z,21.37
2023-04-04T14:48:39.590Z,21.06
2023-04-04T14:51:09.054Z,20.90
2023-04-04T14:53:38.427Z,20.94
2023-04-04T14:56:08.628Z,21.02
2023-04-04T14:58:38.088Z,21.05
2023-04-04T15:01:07.799Z,21.02
2023-04-04T15:03:37.808Z,20.30
2023-04-04T15:06:07.170Z,20.20
2023-04-04T15:08:36.440Z,20.50
2023-04-04T15:11:06.037Z,20.50
2023-04-04T15:13:35.618Z,20.27
2023-04-04T15:16:05.120Z,20.23
2023-04-04T15:18:34.735Z,20.00
2023-04-04T15:21:05.211Z,19.61
2023-04-04T15:23:34.550Z,19.31
2023-04-04T15:26:04.164Z,19.13
2023-04-04T15:28:34.011Z,19.11
2023-04-04T15:31:03.620Z,18.99
2023-04-04T15:33:33.366Z,18.38
2023-04-04T15:36:02.496Z,18.41
2023-04-04T15:38:31.562Z,18.51
2023-04-04T15:41:01.192Z,18.28
2023-04-04T15:43:32.643Z,18.09
2023-04-04T15:46:02.885Z,18.14
2023-04-04T15:48:34.745Z,18.38
2023-04-04T15:51:04.644Z,18.23
2023-04-04T15:53:34.293Z,18.50
2023-04-04T15:56:03.732Z,18.59
2023-04-04T15:58:33.935Z,18.40
2023-04-04T16:01:04.308Z,17.99
2023-04-04T16:03:33.823Z,17.72
2023-04-04T16:06:03.614Z,17.70
2023-04-04T16:08:34.403Z,17.21
2023-04-04T16:11:05.297Z,16.95
2023-04-04T16:13:35.368Z,16.75
2023-04-04T16:16:05.500Z,16.52
2023-04-04T16:18:37.964Z,16.37
2023-04-04T16:21:09.346Z,15.95
2023-04-04T16:23:39.716Z,15.63
2023-04-04T16:26:09.938Z,15.31
2023-04-04T16:28:39.562Z,15.08
2023-04-04T16:31:09.734Z,14.97
2023-04-04T16:33:40.478Z,14.84
2023-04-04T16:36:10.402Z,14.41
2023-04-04T16:38:40.921Z,14.19
2023-04-04T16:41:10.504Z,13.85
2023-04-04T16:43:41.276Z,13.69
2023-04-04T16:46:12.453Z,13.59
2023-04-04T16:48:43.182Z,13.50
2023-04-04T16:51:14.422Z,13.34
2023-04-04T16:53:44.299Z,13.24
2023-04-04T16:56:13.293Z,13.02
2023-04-04T16:58:45.569Z,13.00
2023-04-04T17:01:22.093Z,12.90
2023-04-04T17:03:52.497Z,12.76
2023-04-04T17:06:23.157Z,12.58
2023-04-04T17:08:54.075Z,12.39
2023-04-04T17:11:25.714Z,12.29
2023-04-04T17:13:55.820Z,12.14
2023-04-04T17:16:27.660Z,11.99
2023-04-04T17:18:58.859Z,11.88
2023-04-04T17:21:29.420Z,11.74
2023-04-04T17:24:00.337Z,11.56
2023-04-04T17:26:30.989Z,11.53
2023-04-04T17:29:02.252Z,11.38
2023-04-04T17:31:33.442Z,11.25
2023-04-04T17:34:03.962Z,11.20
2023-04-04T17:36:36.265Z,11.15
2023-04-04T17:39:08.599Z,11.05
2023-04-04T17:41:40.541Z,10.85
2023-04-04T17:44:11.826Z,10.75
2023-04-04T17:46:42.017Z,10.68
2023-04-04T17:49:13.237Z,10.53
2023-04-04T17:51:43.429Z,10.36
2023-04-04T17:54:15.071Z,10.28
2023-04-04T17:56:47.415Z,10.18
2023-04-04T17:59:18.135Z,10.13
2023-04-04T18:01:48.866Z,9.99
2023-04-04T18:04:20.417Z,9.91
2023-04-04T18:06:50.871Z,9.82
2023-04-04T18:09:21.788Z,9.75
2023-04-04T18:11:52.577Z,9.74
2023-04-04T18:14:23.195Z,9.65
2023-04-04T18:16:54.134Z,9.64
2023-04-04T18:19:24.815Z,9.59
2023-04-04T18:22:00.959Z,9.56
2023-04-04T18:24:32.231Z,9.50
2023-04-04T18:27:02.836Z,9.48
2023-04-04T18:29:33.716Z,9.42
2023-04-04T18:32:04.892Z,9.36
2023-04-04T18:34:36.974Z,9.29
2023-04-04T18:37:08.916Z,9.21
2023-04-04T18:39:40.679Z,9.11
2023-04-04T18:42:13.584Z,8.96
2023-04-04T18:44:44.235Z,8.89
2023-04-04T18:47:14.557Z,8.90
2023-04-04T18:49:43.887Z,8.88
2023-04-04T18:52:13.916Z,8.84
2023-04-04T18:54:42.998Z,8.78
2023-04-04T18:57:13.894Z,8.74
2023-04-04T18:59:44.166Z,8.68
2023-04-04T19:02:14.645Z,8.65
2023-04-04T19:04:46.302Z,8.60
2023-04-04T19:07:22.626Z,8.55
2023-04-04T19:09:52.358Z,8.52
2023-04-04T19:12:22.061Z,8.53
2023-04-04T19:14:51.960Z,8.44
2023-04-04T19:17:21.482Z,8.25
2023-04-04T19:19:51.193Z,8.14
2023-04-04T19:22:20.726Z,8.08
2023-04-04T19:24:50.762Z,7.97
2023-04-04T19:27:21.891Z,7.86
2023-04-04T19:29:54.790Z,7.84
2023-04-04T19:32:28.205Z,7.78
2023-04-04T19:34:59.312Z,7.71
2023-04-04T19:37:29.616Z,7.70
2023-04-04T19:40:00.218Z,7.63
2023-04-04T19:42:31.107Z,7.59
2023-04-04T19:45:01.819Z,7.51
2023-04-04T19:47:32.382Z,7.50
2023-04-04T19:50:02.410Z,7.49
2023-04-04T19:52:32.481Z,7.52
2023-04-04T19:55:08.913Z,7.51
2023-04-04T19:57:38.895Z,7.38
2023-04-04T20:00:14.861Z,7.30
2023-04-04T20:02:57.474Z,7.27
2023-04-04T20:05:30.593Z,7.23
2023-04-04T20:08:07.401Z,7.17
2023-04-04T20:10:39.999Z,7.15
2023-04-04T20:13:10.942Z,7.13
2023-04-04T20:15:50.239Z,7.04
2023-04-04T20:18:24.878Z,7.02
2023-04-04T20:21:13.847Z,7.03
2023-04-04T20:23:50.397Z,6.99
2023-04-04T20:26:39.953Z,7.06
2023-04-04T20:29:13.972Z,7.05
2023-04-04T20:31:48.931Z,7.09
2023-04-04T20:34:42.834Z,7.07
2023-04-04T20:37:23.735Z,6.99
2023-04-04T20:39:57.637Z,7.07
2023-04-04T20:42:38.978Z,7.08
2023-04-04T20:45:15.280Z,7.11
2023-04-04T20:47:52.592Z,7.17
2023-04-04T20:50:27.838Z,7.21
2023-04-04T20:53:01.574Z,7.25
2023-04-04T20:55:34.614Z,7.25
2023-04-04T20:58:11.490Z,7.26
2023-04-04T21:00:43.686Z,7.20
2023-04-04T21:03:32.771Z,7.19
2023-04-04T21:06:15.548Z,7.09
2023-04-04T21:08:50.406Z,7.06
2023-04-04T21:11:32.052Z,7.06
2023-04-04T21:14:02.658Z,7.05
2023-04-04T21:16:32.846Z,6.98
2023-04-04T21:19:03.778Z,6.97
2023-04-04T21:21:33.417Z,6.97
2023-04-04T21:24:03.873Z,6.99
2023-04-04T21:26:35.514Z,6.98
2023-04-04T21:29:06.070Z,6.95
2023-04-04T21:31:41.200Z,6.89
2023-04-04T21:34:14.176Z,6.80
2023-04-04T21:36:45.345Z,6.85
2023-04-04T21:39:27.522Z,6.90
2023-04-04T21:42:00.262Z,6.86
2023-04-04T21:44:30.909Z,6.86
2023-04-04T21:47:02.284Z,6.85
2023-04-04T21:49:31.533Z,6.84
2023-04-04T21:52:01.738Z,6.81
2023-04-04T21:54:30.719Z,6.82
2023-04-04T21:57:00.652Z,6.79
2023-04-04T21:59:30.435Z,6.83
2023-04-04T22:01:59.921Z,6.88
2023-04-04T22:04:28.913Z,6.86
2023-04-04T22:06:58.956Z,6.88
2023-04-04T22:09:30.275Z,6.86
2023-04-04T22:11:59.495Z,6.82
2023-04-04T22:14:30.368Z,6.83
2023-04-04T22:16:59.435Z,6.79
2023-04-04T22:19:35.386Z,6.80
2023-04-04T22:22:06.016Z,6.81
2023-04-04T22:24:35.247Z,6.85
2023-04-04T22:27:05.764Z,6.86
2023-04-04T22:29:34.780Z,6.81
2023-04-04T22:32:04.275Z,6.78
2023-04-04T22:34:33.532Z,6.75
2023-04-04T22:37:04.128Z,6.74
2023-04-04T22:39:33.125Z,6.73
2023-04-04T22:42:02.234Z,6.71
2023-04-04T22:44:31.635Z,6.72
2023-04-04T22:47:03.082Z,6.69
2023-04-04T22:49:33.608Z,6.65
2023-04-04T22:52:08.111Z,6.64
2023-04-04T22:54:38.307Z,6.63
2023-04-04T22:57:07.835Z,6.67
2023-04-04T22:59:36.856Z,6.66
2023-04-04T23:02:06.544Z,6.66
2023-04-04T23:04:36.849Z,6.62
2023-04-04T23:07:05.788Z,6.60
2023-04-04T23:09:35.010Z,6.60
2023-04-04T23:12:04.317Z,6.61
2023-04-04T23:14:39.125Z,6.60
2023-04-04T23:17:08.294Z,6.58
2023-04-04T23:19:38.019Z,6.55
2023-04-04T23:22:08.919Z,6.55
2023-04-04T23:24:38.457Z,6.53
2023-04-04T23:27:08.057Z,6.51
2023-04-04T23:29:36.954Z,6.50
2023-04-04T23:32:06.318Z,6.52
2023-04-04T23:34:35.025Z,6.50
2023-04-04T23:37:04.798Z,6.48
2023-04-04T23:39:33.624Z,6.43
2023-04-04T23:42:03.021Z,6.41
2023-04-04T23:44:32.213Z,6.43
2023-04-04T23:47:00.866Z,6.42
2023-04-04T23:49:30.432Z,6.40
2023-04-04T23:51:59.460Z,6.29
2023-04-04T23:54:28.133Z,6.24
2023-04-04T23:56:57.064Z,6.20
2023-04-04T23:59:26.350Z,6.16
